sensor_id;sensor_type;location;lat;lon;timestamp;P1;durP1;ratioP1;P2;durP2;ratioP2
17283;SDS011;8760;52.248;20.952;2022-12-10T00:01:08;68.33;;;38.50;;
17283;SDS011;8760;52.248;20.952;2022-12-10T00:03:37;64.70;;;38.37;;
17283;SDS011;8760;52.248;20.952;2022-12-10T00:06:05;71.80;;;40.27;;
17283;SDS011;8760;52.248;20.952;2022-12-10T00:08:33;68.33;;;39.87;;
17283;SDS011;8760;52.248;20.952;2022-12-10T00:11:02;65.90;;;38.47;;
17283;SDS011;8760;52.248;20.952;2022-12-10T00:13:29;71.57;;;39.83;;
17283;SDS011;8760;52.248;20.952;2022-12-10T00:15:58;70.00;;;40.33;;
17283;SDS011;8760;52.248;20.952;2022-12-10T00:18:25;69.07;;;38.97;;
17283;SDS011;8760;52.248;20.952;2022-12-10T00:20:53;71.30;;;39.77;;
17283;SDS011;8760;52.248;20.952;2022-12-10T00:23:20;67.83;;;37.70;;
17283;SDS011;8760;52.248;20.952;2022-12-10T00:25:47;71.80;;;39.80;;
17283;SDS011;8760;52.248;20.952;2022-12-10T00:28:14;74.90;;;39.03;;
17283;SDS011;8760;52.248;20.952;2022-12-10T00:30:43;71.97;;;39.00;;
17283;SDS011;8760;52.248;20.952;2022-12-10T00:33:10;69.73;;;38.00;;
17283;SDS011;8760;52.248;20.952;2022-12-10T00:35:37;68.70;;;38.27;;
17283;SDS011;8760;52.248;20.952;2022-12-10T00:38:05;65.80;;;37.80;;
17283;SDS011;8760;52.248;20.952;2022-12-10T00:40:32;70.23;;;37.60;;
17283;SDS011;8760;52.248;20.952;2022-12-10T00:42:59;67.10;;;39.27;;
17283;SDS011;8760;52.248;20.952;2022-12-10T00:45:26;72.20;;;39.87;;
17283;SDS011;8760;52.248;20.952;2022-12-10T00:47:53;65.70;;;38.10;;
17283;SDS011;8760;52.248;20.952;2022-12-10T00:50:19;68.60;;;38.97;;
17283;SDS011;8760;52.248;20.952;2022-12-10T00:52:46;67.40;;;37.87;;
17283;SDS011;8760;52.248;20.952;2022-12-10T00:55:14;69.73;;;39.63;;
17283;SDS011;8760;52.248;20.952;2022-12-10T00:57:42;67.97;;;37.37;;
17283;SDS011;8760;52.248;20.952;2022-12-10T01:00:09;71.73;;;39.57;;
17283;SDS011;8760;52.248;20.952;2022-12-10T01:02:38;71.73;;;39.13;;
17283;SDS011;8760;52.248;20.952;2022-12-10T01:05:05;66.57;;;37.50;;
17283;SDS011;8760;52.248;20.952;2022-12-10T01:07:32;71.50;;;40.47;;
17283;SDS011;8760;52.248;20.952;2022-12-10T01:09:58;64.87;;;38.73;;
17283;SDS011;8760;52.248;20.952;2022-12-10T01:12:27;68.60;;;38.23;;
17283;SDS011;8760;52.248;20.952;2022-12-10T01:14:53;67.80;;;39.40;;
17283;SDS011;8760;52.248;20.952;2022-12-10T01:17:20;71.77;;;40.33;;
17283;SDS011;8760;52.248;20.952;2022-12-10T01:19:47;69.00;;;38.80;;
17283;SDS011;8760;52.248;20.952;2022-12-10T01:22:14;76.23;;;39.27;;
17283;SDS011;8760;52.248;20.952;2022-12-10T01:24:41;73.90;;;39.63;;
17283;SDS011;8760;52.248;20.952;2022-12-10T01:27:08;71.40;;;39.73;;
17283;SDS011;8760;52.248;20.952;2022-12-10T01:29:36;70.40;;;40.93;;
17283;SDS011;8760;52.248;20.952;2022-12-10T01:32:03;71.97;;;40.90;;
17283;SDS011;8760;52.248;20.952;2022-12-10T01:34:30;74.90;;;40.50;;
17283;SDS011;8760;52.248;20.952;2022-12-10T01:36:56;69.30;;;38.33;;
17283;SDS011;8760;52.248;20.952;2022-12-10T01:39:23;72.03;;;38.07;;
17283;SDS011;8760;52.248;20.952;2022-12-10T01:41:51;68.43;;;38.50;;
17283;SDS011;8760;52.248;20.952;2022-12-10T01:47:27;66.03;;;37.57;;
17283;SDS011;8760;52.248;20.952;2022-12-10T01:49:54;68.47;;;37.43;;
17283;SDS011;8760;52.248;20.952;2022-12-10T01:52:21;70.87;;;36.87;;
17283;SDS011;8760;52.248;20.952;2022-12-10T01:54:47;71.37;;;37.47;;
17283;SDS011;8760;52.248;20.952;2022-12-10T01:57:15;71.80;;;37.27;;
17283;SDS011;8760;52.248;20.952;2022-12-10T01:59:45;71.90;;;37.43;;
17283;SDS011;8760;52.248;20.952;2022-12-10T02:02:17;69.07;;;37.07;;
17283;SDS011;8760;52.248;20.952;2022-12-10T02:04:53;65.93;;;38.37;;
17283;SDS011;8760;52.248;20.952;2022-12-10T02:07:28;68.40;;;35.50;;
17283;SDS011;8760;52.248;20.952;2022-12-10T02:10:06;68.00;;;36.57;;
17283;SDS011;8760;52.248;20.952;2022-12-10T02:12:41;67.77;;;37.07;;
17283;SDS011;8760;52.248;20.952;2022-12-10T02:15:15;67.73;;;36.00;;
17283;SDS011;8760;52.248;20.952;2022-12-10T02:17:47;65.87;;;35.90;;
17283;SDS011;8760;52.248;20.952;2022-12-10T02:20:18;71.73;;;36.93;;
17283;SDS011;8760;52.248;20.952;2022-12-10T02:22:49;68.90;;;36.50;;
17283;SDS011;8760;52.248;20.952;2022-12-10T02:25:22;71.87;;;37.07;;
17283;SDS011;8760;52.248;20.952;2022-12-10T02:27:54;68.13;;;36.80;;
17283;SDS011;8760;52.248;20.952;2022-12-10T02:30:27;66.53;;;36.23;;
17283;SDS011;8760;52.248;20.952;2022-12-10T02:32:55;65.87;;;34.47;;
17283;SDS011;8760;52.248;20.952;2022-12-10T02:35:27;65.47;;;35.37;;
17283;SDS011;8760;52.248;20.952;2022-12-10T02:37:59;68.60;;;36.30;;
17283;SDS011;8760;52.248;20.952;2022-12-10T02:40:31;67.67;;;35.30;;
17283;SDS011;8760;52.248;20.952;2022-12-10T02:43:01;67.13;;;35.80;;
17283;SDS011;8760;52.248;20.952;2022-12-10T02:45:29;66.33;;;35.83;;
17283;SDS011;8760;52.248;20.952;2022-12-10T02:47:58;66.67;;;34.23;;
17283;SDS011;8760;52.248;20.952;2022-12-10T02:50:27;64.80;;;35.13;;
17283;SDS011;8760;52.248;20.952;2022-12-10T02:52:54;64.63;;;34.37;;
17283;SDS011;8760;52.248;20.952;2022-12-10T02:55:21;57.27;;;31.30;;
17283;SDS011;8760;52.248;20.952;2022-12-10T02:57:52;65.30;;;34.20;;
17283;SDS011;8760;52.248;20.952;2022-12-10T03:00:34;52.37;;;30.67;;
17283;SDS011;8760;52.248;20.952;2022-12-10T03:05:55;56.90;;;30.07;;
17283;SDS011;8760;52.248;20.952;2022-12-10T03:08:31;54.93;;;30.67;;
17283;SDS011;8760;52.248;20.952;2022-12-10T03:11:01;53.33;;;29.87;;
17283;SDS011;8760;52.248;20.952;2022-12-10T03:13:35;58.47;;;32.70;;
17283;SDS011;8760;52.248;20.952;2022-12-10T03:16:06;61.83;;;32.17;;
17283;SDS011;8760;52.248;20.952;2022-12-10T03:18:36;59.13;;;31.47;;
17283;SDS011;8760;52.248;20.952;2022-12-10T03:21:04;60.40;;;30.37;;
17283;SDS011;8760;52.248;20.952;2022-12-10T03:23:33;56.40;;;29.93;;
17283;SDS011;8760;52.248;20.952;2022-12-10T03:26:03;54.80;;;30.10;;
17283;SDS011;8760;52.248;20.952;2022-12-10T03:28:32;56.80;;;30.40;;
17283;SDS011;8760;52.248;20.952;2022-12-10T03:31:04;56.03;;;29.57;;
17283;SDS011;8760;52.248;20.952;2022-12-10T03:33:35;50.80;;;27.80;;
17283;SDS011;8760;52.248;20.952;2022-12-10T03:36:03;54.03;;;28.37;;
17283;SDS011;8760;52.248;20.952;2022-12-10T03:38:31;50.80;;;28.30;;
17283;SDS011;8760;52.248;20.952;2022-12-10T03:40:58;51.80;;;28.43;;
17283;SDS011;8760;52.248;20.952;2022-12-10T03:43:25;50.90;;;28.27;;
17283;SDS011;8760;52.248;20.952;2022-12-10T03:45:52;52.33;;;28.63;;
17283;SDS011;8760;52.248;20.952;2022-12-10T03:48:20;58.27;;;29.97;;
17283;SDS011;8760;52.248;20.952;2022-12-10T03:50:47;55.27;;;30.30;;
17283;SDS011;8760;52.248;20.952;2022-12-10T03:53:14;57.43;;;30.37;;
17283;SDS011;8760;52.248;20.952;2022-12-10T03:55:41;53.47;;;29.50;;
17283;SDS011;8760;52.248;20.952;2022-12-10T03:58:08;54.17;;;29.90;;
17283;SDS011;8760;52.248;20.952;2022-12-10T04:00:35;55.13;;;29.13;;
17283;SDS011;8760;52.248;20.952;2022-12-10T04:03:02;55.67;;;30.60;;
17283;SDS011;8760;52.248;20.952;2022-12-10T04:05:30;54.57;;;30.13;;
17283;SDS011;8760;52.248;20.952;2022-12-10T04:07:57;52.43;;;28.37;;
17283;SDS011;8760;52.248;20.952;2022-12-10T04:10:23;54.37;;;30.20;;
17283;SDS011;8760;52.248;20.952;2022-12-10T04:12:50;54.57;;;30.00;;
17283;SDS011;8760;52.248;20.952;2022-12-10T04:15:31;53.77;;;28.47;;
17283;SDS011;8760;52.248;20.952;2022-12-10T04:18:20;53.37;;;29.10;;
17283;SDS011;8760;52.248;20.952;2022-12-10T04:20:48;57.20;;;29.97;;
17283;SDS011;8760;52.248;20.952;2022-12-10T04:23:33;58.07;;;30.53;;
17283;SDS011;8760;52.248;20.952;2022-12-10T04:26:17;55.67;;;31.00;;
17283;SDS011;8760;52.248;20.952;2022-12-10T04:29:01;54.10;;;29.80;;
17283;SDS011;8760;52.248;20.952;2022-12-10T04:31:28;58.93;;;30.47;;
17283;SDS011;8760;52.248;20.952;2022-12-10T04:33:55;61.33;;;30.50;;
17283;SDS011;8760;52.248;20.952;2022-12-10T04:36:23;57.93;;;29.63;;
17283;SDS011;8760;52.248;20.952;2022-12-10T04:38:50;53.63;;;29.40;;
17283;SDS011;8760;52.248;20.952;2022-12-10T04:41:16;50.13;;;27.50;;
17283;SDS011;8760;52.248;20.952;2022-12-10T04:43:43;54.53;;;28.40;;
17283;SDS011;8760;52.248;20.952;2022-12-10T04:46:10;53.57;;;28.63;;
17283;SDS011;8760;52.248;20.952;2022-12-10T04:48:37;51.30;;;26.73;;
17283;SDS011;8760;52.248;20.952;2022-12-10T04:51:04;57.63;;;29.53;;
17283;SDS011;8760;52.248;20.952;2022-12-10T04:53:32;55.50;;;30.13;;
17283;SDS011;8760;52.248;20.952;2022-12-10T04:55:59;55.03;;;29.47;;
17283;SDS011;8760;52.248;20.952;2022-12-10T04:58:26;57.83;;;30.20;;
17283;SDS011;8760;52.248;20.952;2022-12-10T05:01:00;61.07;;;30.80;;
17283;SDS011;8760;52.248;20.952;2022-12-10T05:03:27;62.93;;;30.63;;
17283;SDS011;8760;52.248;20.952;2022-12-10T05:05:54;60.20;;;30.10;;
17283;SDS011;8760;52.248;20.952;2022-12-10T05:08:21;58.33;;;29.40;;
17283;SDS011;8760;52.248;20.952;2022-12-10T05:10:49;59.00;;;29.23;;
17283;SDS011;8760;52.248;20.952;2022-12-10T05:13:16;59.80;;;28.53;;
17283;SDS011;8760;52.248;20.952;2022-12-10T05:15:43;57.60;;;27.97;;
17283;SDS011;8760;52.248;20.952;2022-12-10T05:18:09;58.80;;;27.83;;
17283;SDS011;8760;52.248;20.952;2022-12-10T05:20:36;54.37;;;27.50;;
17283;SDS011;8760;52.248;20.952;2022-12-10T05:23:03;50.53;;;24.50;;
17283;SDS011;8760;52.248;20.952;2022-12-10T05:25:49;53.00;;;24.73;;
17283;SDS011;8760;52.248;20.952;2022-12-10T05:28:24;50.97;;;24.43;;
17283;SDS011;8760;52.248;20.952;2022-12-10T05:30:51;52.37;;;25.60;;
17283;SDS011;8760;52.248;20.952;2022-12-10T05:33:18;50.63;;;23.90;;
17283;SDS011;8760;52.248;20.952;2022-12-10T05:35:50;44.37;;;22.20;;
17283;SDS011;8760;52.248;20.952;2022-12-10T05:38:18;42.60;;;21.53;;
17283;SDS011;8760;52.248;20.952;2022-12-10T05:40:45;41.90;;;21.80;;
17283;SDS011;8760;52.248;20.952;2022-12-10T05:43:13;40.90;;;21.50;;
17283;SDS011;8760;52.248;20.952;2022-12-10T05:45:40;39.03;;;20.57;;
17283;SDS011;8760;52.248;20.952;2022-12-10T05:48:08;38.63;;;21.63;;
17283;SDS011;8760;52.248;20.952;2022-12-10T05:50:35;44.03;;;22.13;;
17283;SDS011;8760;52.248;20.952;2022-12-10T05:53:02;41.80;;;22.57;;
17283;SDS011;8760;52.248;20.952;2022-12-10T05:55:29;49.27;;;25.40;;
17283;SDS011;8760;52.248;20.952;2022-12-10T05:57:57;51.93;;;26.10;;
17283;SDS011;8760;52.248;20.952;2022-12-10T06:00:26;49.57;;;25.30;;
17283;SDS011;8760;52.248;20.952;2022-12-10T06:02:54;49.10;;;25.83;;
17283;SDS011;8760;52.248;20.952;2022-12-10T06:05:21;53.57;;;26.37;;
17283;SDS011;8760;52.248;20.952;2022-12-10T06:07:48;53.83;;;25.83;;
17283;SDS011;8760;52.248;20.952;2022-12-10T06:10:14;53.63;;;24.97;;
17283;SDS011;8760;52.248;20.952;2022-12-10T06:12:41;47.57;;;24.37;;
17283;SDS011;8760;52.248;20.952;2022-12-10T06:15:08;52.67;;;26.23;;
17283;SDS011;8760;52.248;20.952;2022-12-10T06:17:37;47.73;;;24.07;;
17283;SDS011;8760;52.248;20.952;2022-12-10T06:20:04;48.60;;;24.27;;
17283;SDS011;8760;52.248;20.952;2022-12-10T06:22:32;52.70;;;25.93;;
17283;SDS011;8760;52.248;20.952;2022-12-10T06:25:00;51.07;;;24.87;;
17283;SDS011;8760;52.248;20.952;2022-12-10T06:27:28;45.47;;;23.30;;
17283;SDS011;8760;52.248;20.952;2022-12-10T06:29:56;49.43;;;24.53;;
17283;SDS011;8760;52.248;20.952;2022-12-10T06:32:22;46.53;;;24.03;;
17283;SDS011;8760;52.248;20.952;2022-12-10T06:34:51;48.23;;;22.83;;
17283;SDS011;8760;52.248;20.952;2022-12-10T06:37:18;44.93;;;23.53;;
17283;SDS011;8760;52.248;20.952;2022-12-10T06:39:44;46.37;;;22.90;;
17283;SDS011;8760;52.248;20.952;2022-12-10T06:42:11;49.83;;;24.00;;
17283;SDS011;8760;52.248;20.952;2022-12-10T06:44:39;46.17;;;22.77;;
17283;SDS011;8760;52.248;20.952;2022-12-10T06:47:06;43.03;;;22.10;;
17283;SDS011;8760;52.248;20.952;2022-12-10T06:49:32;49.73;;;23.53;;
17283;SDS011;8760;52.248;20.952;2022-12-10T06:52:00;49.40;;;24.23;;
17283;SDS011;8760;52.248;20.952;2022-12-10T06:54:28;54.43;;;24.53;;
17283;SDS011;8760;52.248;20.952;2022-12-10T06:56:55;48.20;;;23.60;;
17283;SDS011;8760;52.248;20.952;2022-12-10T06:59:22;51.97;;;22.77;;
17283;SDS011;8760;52.248;20.952;2022-12-10T07:01:49;47.00;;;22.70;;
17283;SDS011;8760;52.248;20.952;2022-12-10T07:04:15;49.27;;;22.57;;
17283;SDS011;8760;52.248;20.952;2022-12-10T07:06:43;50.93;;;23.23;;
17283;SDS011;8760;52.248;20.952;2022-12-10T07:09:11;48.40;;;23.47;;
17283;SDS011;8760;52.248;20.952;2022-12-10T07:11:38;43.70;;;21.83;;
17283;SDS011;8760;52.248;20.952;2022-12-10T07:14:05;47.93;;;22.40;;
17283;SDS011;8760;52.248;20.952;2022-12-10T07:16:32;48.50;;;23.20;;
17283;SDS011;8760;52.248;20.952;2022-12-10T07:18:59;45.43;;;21.77;;
17283;SDS011;8760;52.248;20.952;2022-12-10T07:21:28;45.70;;;23.33;;
17283;SDS011;8760;52.248;20.952;2022-12-10T07:23:57;41.97;;;22.23;;
17283;SDS011;8760;52.248;20.952;2022-12-10T07:26:28;48.57;;;23.43;;
17283;SDS011;8760;52.248;20.952;2022-12-10T07:28:58;49.13;;;22.57;;
17283;SDS011;8760;52.248;20.952;2022-12-10T07:31:26;48.50;;;22.77;;
17283;SDS011;8760;52.248;20.952;2022-12-10T07:33:53;51.53;;;23.23;;
17283;SDS011;8760;52.248;20.952;2022-12-10T07:36:22;51.43;;;22.87;;
17283;SDS011;8760;52.248;20.952;2022-12-10T07:38:50;45.90;;;23.73;;
17283;SDS011;8760;52.248;20.952;2022-12-10T07:41:18;55.30;;;23.63;;
17283;SDS011;8760;52.248;20.952;2022-12-10T07:43:47;47.63;;;23.80;;
17283;SDS011;8760;52.248;20.952;2022-12-10T07:46:15;47.30;;;23.60;;
17283;SDS011;8760;52.248;20.952;2022-12-10T07:48:44;51.87;;;24.17;;
17283;SDS011;8760;52.248;20.952;2022-12-10T07:51:13;46.77;;;22.13;;
17283;SDS011;8760;52.248;20.952;2022-12-10T07:53:41;52.57;;;23.80;;
17283;SDS011;8760;52.248;20.952;2022-12-10T07:56:08;46.10;;;21.63;;
17283;SDS011;8760;52.248;20.952;2022-12-10T07:58:35;50.87;;;23.83;;
17283;SDS011;8760;52.248;20.952;2022-12-10T08:01:07;51.50;;;23.50;;
17283;SDS011;8760;52.248;20.952;2022-12-10T08:03:35;52.40;;;23.13;;
17283;SDS011;8760;52.248;20.952;2022-12-10T08:06:03;49.60;;;23.03;;
17283;SDS011;8760;52.248;20.952;2022-12-10T08:08:32;46.37;;;22.40;;
17283;SDS011;8760;52.248;20.952;2022-12-10T08:10:59;44.23;;;22.47;;
17283;SDS011;8760;52.248;20.952;2022-12-10T08:13:27;45.10;;;22.50;;
17283;SDS011;8760;52.248;20.952;2022-12-10T08:15:54;44.57;;;22.03;;
17283;SDS011;8760;52.248;20.952;2022-12-10T08:18:28;43.87;;;19.73;;
17283;SDS011;8760;52.248;20.952;2022-12-10T08:20:55;40.67;;;20.63;;
17283;SDS011;8760;52.248;20.952;2022-12-10T08:23:22;42.63;;;21.83;;
17283;SDS011;8760;52.248;20.952;2022-12-10T08:25:49;42.27;;;20.73;;
17283;SDS011;8760;52.248;20.952;2022-12-10T08:28:16;41.57;;;20.70;;
17283;SDS011;8760;52.248;20.952;2022-12-10T08:30:45;38.87;;;19.97;;
17283;SDS011;8760;52.248;20.952;2022-12-10T08:33:12;38.93;;;18.50;;
17283;SDS011;8760;52.248;20.952;2022-12-10T08:35:40;37.27;;;19.67;;
17283;SDS011;8760;52.248;20.952;2022-12-10T08:38:07;40.90;;;18.80;;
17283;SDS011;8760;52.248;20.952;2022-12-10T08:40:38;36.07;;;17.30;;
17283;SDS011;8760;52.248;20.952;2022-12-10T08:43:05;38.47;;;18.03;;
17283;SDS011;8760;52.248;20.952;2022-12-10T08:45:32;37.80;;;18.90;;
17283;SDS011;8760;52.248;20.952;2022-12-10T08:47:59;38.90;;;18.57;;
17283;SDS011;8760;52.248;20.952;2022-12-10T08:50:26;40.53;;;17.97;;
17283;SDS011;8760;52.248;20.952;2022-12-10T08:52:55;37.40;;;18.27;;
17283;SDS011;8760;52.248;20.952;2022-12-10T08:55:21;38.37;;;18.43;;
17283;SDS011;8760;52.248;20.952;2022-12-10T08:57:48;36.90;;;18.90;;
17283;SDS011;8760;52.248;20.952;2022-12-10T09:00:15;36.40;;;18.53;;
17283;SDS011;8760;52.248;20.952;2022-12-10T09:02:43;34.50;;;17.30;;
17283;SDS011;8760;52.248;20.952;2022-12-10T09:05:10;41.10;;;19.03;;
17283;SDS011;8760;52.248;20.952;2022-12-10T09:07:37;35.90;;;18.17;;
17283;SDS011;8760;52.248;20.952;2022-12-10T09:10:06;37.13;;;18.07;;
17283;SDS011;8760;52.248;20.952;2022-12-10T09:12:35;35.40;;;17.30;;
17283;SDS011;8760;52.248;20.952;2022-12-10T09:15:02;37.00;;;17.40;;
17283;SDS011;8760;52.248;20.952;2022-12-10T09:17:29;36.57;;;17.37;;
17283;SDS011;8760;52.248;20.952;2022-12-10T09:19:56;37.67;;;18.33;;
17283;SDS011;8760;52.248;20.952;2022-12-10T09:22:23;41.27;;;19.20;;
17283;SDS011;8760;52.248;20.952;2022-12-10T09:24:50;34.03;;;17.53;;
17283;SDS011;8760;52.248;20.952;2022-12-10T09:27:18;35.30;;;17.00;;
17283;SDS011;8760;52.248;20.952;2022-12-10T09:29:45;35.70;;;17.67;;
17283;SDS011;8760;52.248;20.952;2022-12-10T09:32:12;37.07;;;17.40;;
17283;SDS011;8760;52.248;20.952;2022-12-10T09:34:39;35.57;;;17.50;;
17283;SDS011;8760;52.248;20.952;2022-12-10T09:37:06;38.13;;;17.43;;
17283;SDS011;8760;52.248;20.952;2022-12-10T09:39:32;35.13;;;17.03;;
17283;SDS011;8760;52.248;20.952;2022-12-10T09:42:03;40.73;;;19.33;;
17283;SDS011;8760;52.248;20.952;2022-12-10T09:44:44;36.50;;;18.67;;
17283;SDS011;8760;52.248;20.952;2022-12-10T09:47:18;36.30;;;18.00;;
17283;SDS011;8760;52.248;20.952;2022-12-10T09:49:50;39.23;;;17.80;;
17283;SDS011;8760;52.248;20.952;2022-12-10T09:52:29;36.00;;;16.80;;
17283;SDS011;8760;52.248;20.952;2022-12-10T09:55:02;41.43;;;19.80;;
17283;SDS011;8760;52.248;20.952;2022-12-10T09:57:35;37.83;;;19.13;;
17283;SDS011;8760;52.248;20.952;2022-12-10T10:00:11;35.97;;;19.40;;
17283;SDS011;8760;52.248;20.952;2022-12-10T10:02:45;38.67;;;18.50;;
17283;SDS011;8760;52.248;20.952;2022-12-10T10:05:14;42.97;;;18.63;;
17283;SDS011;8760;52.248;20.952;2022-12-10T10:07:46;39.97;;;20.80;;
17283;SDS011;8760;52.248;20.952;2022-12-10T10:10:19;39.80;;;18.77;;
17283;SDS011;8760;52.248;20.952;2022-12-10T10:12:49;35.53;;;18.60;;
17283;SDS011;8760;52.248;20.952;2022-12-10T10:15:22;34.50;;;17.57;;
17283;SDS011;8760;52.248;20.952;2022-12-10T10:17:53;35.30;;;18.27;;
17283;SDS011;8760;52.248;20.952;2022-12-10T10:20:24;33.70;;;16.90;;
17283;SDS011;8760;52.248;20.952;2022-12-10T10:22:58;36.63;;;17.67;;
17283;SDS011;8760;52.248;20.952;2022-12-10T10:25:26;35.03;;;17.63;;
17283;SDS011;8760;52.248;20.952;2022-12-10T10:27:54;31.20;;;17.47;;
17283;SDS011;8760;52.248;20.952;2022-12-10T10:30:23;31.60;;;16.97;;
17283;SDS011;8760;52.248;20.952;2022-12-10T10:32:51;35.47;;;18.00;;
17283;SDS011;8760;52.248;20.952;2022-12-10T10:35:20;35.60;;;17.43;;
17283;SDS011;8760;52.248;20.952;2022-12-10T10:38:01;31.70;;;16.80;;
17283;SDS011;8760;52.248;20.952;2022-12-10T10:40:32;33.20;;;16.93;;
17283;SDS011;8760;52.248;20.952;2022-12-10T10:43:05;33.17;;;17.47;;
17283;SDS011;8760;52.248;20.952;2022-12-10T10:45:38;37.37;;;18.37;;
17283;SDS011;8760;52.248;20.952;2022-12-10T10:48:08;38.10;;;18.87;;
17283;SDS011;8760;52.248;20.952;2022-12-10T10:50:39;38.17;;;19.10;;
17283;SDS011;8760;52.248;20.952;2022-12-10T10:55:54;34.10;;;18.53;;
17283;SDS011;8760;52.248;20.952;2022-12-10T10:58:24;36.13;;;19.23;;
17283;SDS011;8760;52.248;20.952;2022-12-10T11:00:57;40.87;;;19.23;;
17283;SDS011;8760;52.248;20.952;2022-12-10T11:03:26;36.63;;;18.70;;
17283;SDS011;8760;52.248;20.952;2022-12-10T11:05:55;37.27;;;17.57;;
17283;SDS011;8760;52.248;20.952;2022-12-10T11:08:24;36.67;;;18.93;;
17283;SDS011;8760;52.248;20.952;2022-12-10T11:10:55;36.67;;;18.47;;
17283;SDS011;8760;52.248;20.952;2022-12-10T11:13:28;37.73;;;18.37;;
17283;SDS011;8760;52.248;20.952;2022-12-10T11:15:59;36.13;;;18.37;;
17283;SDS011;8760;52.248;20.952;2022-12-10T11:18:32;36.10;;;17.70;;
17283;SDS011;8760;52.248;20.952;2022-12-10T11:21:02;39.93;;;18.43;;
17283;SDS011;8760;52.248;20.952;2022-12-10T11:23:32;38.23;;;17.93;;
17283;SDS011;8760;52.248;20.952;2022-12-10T11:26:09;40.90;;;19.70;;
17283;SDS011;8760;52.248;20.952;2022-12-10T11:28:49;41.13;;;19.13;;
17283;SDS011;8760;52.248;20.952;2022-12-10T11:31:29;41.33;;;19.60;;
17283;SDS011;8760;52.248;20.952;2022-12-10T11:34:03;39.47;;;18.10;;
17283;SDS011;8760;52.248;20.952;2022-12-10T11:36:42;42.73;;;19.33;;
17283;SDS011;8760;52.248;20.952;2022-12-10T11:39:21;44.37;;;18.87;;
17283;SDS011;8760;52.248;20.952;2022-12-10T11:42:04;44.30;;;19.50;;
17283;SDS011;8760;52.248;20.952;2022-12-10T11:44:40;40.13;;;18.80;;
17283;SDS011;8760;52.248;20.952;2022-12-10T11:47:20;45.37;;;18.70;;
17283;SDS011;8760;52.248;20.952;2022-12-10T11:50:00;42.33;;;18.20;;
17283;SDS011;8760;52.248;20.952;2022-12-10T11:52:38;43.47;;;17.90;;
17283;SDS011;8760;52.248;20.952;2022-12-10T11:55:17;43.67;;;18.37;;
17283;SDS011;8760;52.248;20.952;2022-12-10T11:57:52;44.50;;;18.50;;
17283;SDS011;8760;52.248;20.952;2022-12-10T12:00:37;39.67;;;17.53;;
17283;SDS011;8760;52.248;20.952;2022-12-10T12:03:16;39.50;;;18.20;;
17283;SDS011;8760;52.248;20.952;2022-12-10T12:06:04;45.30;;;17.33;;
17283;SDS011;8760;52.248;20.952;2022-12-10T12:08:47;46.03;;;18.33;;
17283;SDS011;8760;52.248;20.952;2022-12-10T12:11:25;46.00;;;19.40;;
17283;SDS011;8760;52.248;20.952;2022-12-10T12:14:19;45.10;;;19.27;;
17283;SDS011;8760;52.248;20.952;2022-12-10T12:16:50;48.70;;;20.23;;
17283;SDS011;8760;52.248;20.952;2022-12-10T12:19:28;42.80;;;18.73;;
17283;SDS011;8760;52.248;20.952;2022-12-10T12:22:02;46.23;;;20.03;;
17283;SDS011;8760;52.248;20.952;2022-12-10T12:24:36;48.77;;;19.60;;
17283;SDS011;8760;52.248;20.952;2022-12-10T12:27:07;40.23;;;18.67;;
17283;SDS011;8760;52.248;20.952;2022-12-10T12:29:40;42.30;;;18.23;;
17283;SDS011;8760;52.248;20.952;2022-12-10T12:32:11;43.67;;;19.27;;
17283;SDS011;8760;52.248;20.952;2022-12-10T12:34:47;45.33;;;20.00;;
17283;SDS011;8760;52.248;20.952;2022-12-10T12:37:21;43.80;;;18.70;;
17283;SDS011;8760;52.248;20.952;2022-12-10T12:39:52;42.30;;;18.60;;
17283;SDS011;8760;52.248;20.952;2022-12-10T12:42:26;43.00;;;18.50;;
17283;SDS011;8760;52.248;20.952;2022-12-10T12:44:57;38.77;;;18.47;;
17283;SDS011;8760;52.248;20.952;2022-12-10T12:47:31;40.70;;;18.13;;
17283;SDS011;8760;52.248;20.952;2022-12-10T12:50:10;37.83;;;16.87;;
17283;SDS011;8760;52.248;20.952;2022-12-10T12:52:47;30.60;;;14.97;;
17283;SDS011;8760;52.248;20.952;2022-12-10T12:55:19;35.43;;;16.87;;
17283;SDS011;8760;52.248;20.952;2022-12-10T12:57:52;31.57;;;15.90;;
17283;SDS011;8760;52.248;20.952;2022-12-10T13:00:25;30.77;;;14.90;;
17283;SDS011;8760;52.248;20.952;2022-12-10T13:03:05;33.43;;;17.07;;
17283;SDS011;8760;52.248;20.952;2022-12-10T13:05:44;31.30;;;15.70;;
17283;SDS011;8760;52.248;20.952;2022-12-10T13:08:20;34.07;;;16.87;;
17283;SDS011;8760;52.248;20.952;2022-12-10T13:10:52;30.87;;;16.70;;
17283;SDS011;8760;52.248;20.952;2022-12-10T13:13:23;33.37;;;17.33;;
17283;SDS011;8760;52.248;20.952;2022-12-10T13:15:54;37.50;;;17.37;;
17283;SDS011;8760;52.248;20.952;2022-12-10T13:18:34;34.40;;;17.90;;
17283;SDS011;8760;52.248;20.952;2022-12-10T13:24:10;33.80;;;16.57;;
17283;SDS011;8760;52.248;20.952;2022-12-10T13:26:40;32.73;;;16.83;;
17283;SDS011;8760;52.248;20.952;2022-12-10T13:29:28;36.13;;;17.87;;
17283;SDS011;8760;52.248;20.952;2022-12-10T13:32:13;32.73;;;17.63;;
17283;SDS011;8760;52.248;20.952;2022-12-10T13:34:42;36.50;;;17.67;;
17283;SDS011;8760;52.248;20.952;2022-12-10T13:37:18;40.17;;;19.30;;
17283;SDS011;8760;52.248;20.952;2022-12-10T13:39:59;33.40;;;18.60;;
17283;SDS011;8760;52.248;20.952;2022-12-10T13:42:30;38.13;;;18.30;;
17283;SDS011;8760;52.248;20.952;2022-12-10T13:48:18;40.50;;;18.93;;
17283;SDS011;8760;52.248;20.952;2022-12-10T13:50:59;34.90;;;18.43;;
17283;SDS011;8760;52.248;20.952;2022-12-10T13:53:41;38.87;;;19.07;;
17283;SDS011;8760;52.248;20.952;2022-12-10T13:56:16;36.27;;;18.47;;
17283;SDS011;8760;52.248;20.952;2022-12-10T13:58:53;36.70;;;20.07;;
17283;SDS011;8760;52.248;20.952;2022-12-10T14:01:32;38.90;;;18.73;;
17283;SDS011;8760;52.248;20.952;2022-12-10T14:04:18;39.90;;;20.33;;
17283;SDS011;8760;52.248;20.952;2022-12-10T14:06:53;36.23;;;19.10;;
17283;SDS011;8760;52.248;20.952;2022-12-10T14:09:23;35.93;;;19.23;;
17283;SDS011;8760;52.248;20.952;2022-12-10T14:11:53;35.63;;;19.30;;
17283;SDS011;8760;52.248;20.952;2022-12-10T14:14:23;30.47;;;18.50;;
17283;SDS011;8760;52.248;20.952;2022-12-10T14:16:55;33.43;;;19.00;;
17283;SDS011;8760;52.248;20.952;2022-12-10T14:19:25;28.30;;;16.83;;
17283;SDS011;8760;52.248;20.952;2022-12-10T14:21:54;30.40;;;18.07;;
17283;SDS011;8760;52.248;20.952;2022-12-10T14:24:27;32.10;;;17.83;;
17283;SDS011;8760;52.248;20.952;2022-12-10T14:26:57;30.90;;;16.67;;
17283;SDS011;8760;52.248;20.952;2022-12-10T14:29:26;32.30;;;18.57;;
17283;SDS011;8760;52.248;20.952;2022-12-10T14:31:52;34.57;;;18.23;;
17283;SDS011;8760;52.248;20.952;2022-12-10T14:34:21;29.67;;;18.60;;
17283;SDS011;8760;52.248;20.952;2022-12-10T14:36:51;33.43;;;17.87;;
17283;SDS011;8760;52.248;20.952;2022-12-10T14:39:21;32.20;;;18.17;;
17283;SDS011;8760;52.248;20.952;2022-12-10T14:41:53;30.63;;;18.07;;
17283;SDS011;8760;52.248;20.952;2022-12-10T14:44:22;29.57;;;17.43;;
17283;SDS011;8760;52.248;20.952;2022-12-10T14:46:50;29.43;;;18.63;;
17283;SDS011;8760;52.248;20.952;2022-12-10T14:49:19;32.73;;;18.77;;
17283;SDS011;8760;52.248;20.952;2022-12-10T14:51:48;31.17;;;18.77;;
17283;SDS011;8760;52.248;20.952;2022-12-10T14:54:25;32.17;;;19.23;;